createdAt,value
2019-04-29T00:05:14.265Z,25.25
2019-04-29T00:11:18.770Z,23.07
2019-04-29T00:17:31.923Z,23.90
2019-04-29T00:23:36.309Z,22.15
2019-04-29T00:29:40.529Z,22.82
2019-04-29T00:35:44.796Z,21.55
2019-04-29T00:42:13.983Z,25.08
2019-04-29T00:48:18.340Z,23.45
2019-04-29T00:54:31.788Z,21.65
2019-04-29T01:00:38.877Z,23.83
2019-04-29T01:06:43.140Z,22.50
2019-04-29T01:12:47.434Z,25.00
2019-04-29T01:18:51.710Z,25.52
2019-04-29T01:24:55.980Z,23.83
2019-04-29T01:31:04.430Z,28.23
2019-04-29T01:37:08.688Z,26.37
2019-04-29T01:43:13.101Z,23.32
2019-04-29T01:49:17.307Z,23.27
2019-04-29T01:55:21.618Z,26.87
2019-04-29T02:01:26.095Z,23.80
2019-04-29T02:07:30.300Z,24.43
2019-04-29T02:13:36.035Z,21.97
2019-04-29T02:19:40.348Z,21.40
2019-04-29T02:25:45.447Z,24.47
2019-04-29T02:31:49.736Z,21.70
2019-04-29T02:37:54.065Z,24.10
2019-04-29T02:43:59.938Z,24.65
2019-04-29T02:50:04.400Z,21.95
2019-04-29T02:56:08.685Z,21.93
2019-04-29T03:02:22.003Z,22.37
2019-04-29T03:08:26.288Z,16.37
2019-04-29T03:14:30.590Z,20.50
2019-04-29T03:20:56.592Z,22.32
2019-04-29T03:27:00.954Z,19.62
2019-04-29T03:33:05.329Z,20.23
2019-04-29T03:39:09.567Z,24.12
2019-04-29T03:45:13.804Z,25.90
2019-04-29T03:51:18.059Z,18.00
2019-04-29T03:57:22.336Z,19.40
2019-04-29T04:03:33.728Z,24.20
2019-04-29T04:09:38.142Z,25.67
2019-04-29T04:15:42.475Z,23.80
2019-04-29T04:21:46.826Z,23.65
2019-04-29T04:27:51.173Z,24.87
2019-04-29T04:33:55.526Z,20.33
2019-04-29T04:39:59.725Z,23.60
2019-04-29T04:46:04.021Z,18.13
2019-04-29T04:52:08.288Z,20.13
2019-04-29T04:58:12.585Z,22.50
2019-04-29T05:04:16.870Z,23.97
2019-04-29T05:10:21.072Z,24.82
2019-04-29T05:16:25.336Z,25.27
2019-04-29T05:22:29.590Z,30.33
2019-04-29T05:28:33.874Z,37.10
2019-04-29T05:34:41.922Z,29.63
2019-04-29T05:40:48.466Z,29.03
2019-04-29T05:46:58.840Z,25.82
2019-04-29T05:53:11.415Z,28.55
2019-04-29T05:59:15.796Z,19.20
2019-04-29T06:05:20.052Z,22.95
2019-04-29T06:11:24.266Z,24.80
2019-04-29T06:17:28.643Z,22.90
2019-04-29T06:23:32.847Z,23.98
2019-04-29T06:29:37.020Z,26.07
2019-04-29T06:35:43.352Z,29.27
2019-04-29T06:41:47.483Z,25.37
2019-04-29T06:47:51.689Z,34.08
2019-04-29T06:53:56.022Z,24.63
2019-04-29T07:00:00.271Z,23.12
2019-04-29T07:06:04.645Z,22.02
2019-04-29T07:12:12.602Z,22.10
2019-04-29T07:18:14.779Z,17.98
2019-04-29T07:24:20.428Z,15.32
2019-04-29T07:30:24.823Z,14.28
2019-04-29T07:36:29.129Z,16.37
2019-04-29T07:42:33.438Z,19.02
2019-04-29T07:48:41.849Z,16.20
2019-04-29T07:54:47.669Z,15.78
2019-04-29T08:00:50.016Z,15.48
2019-04-29T08:06:55.264Z,17.45
2019-04-29T08:12:59.978Z,17.92
2019-04-29T08:19:05.013Z,18.35
2019-04-29T08:25:09.634Z,20.65
2019-04-29T08:31:16.685Z,21.52
2019-04-29T08:37:19.957Z,21.68
2019-04-29T08:43:45.944Z,22.77
2019-04-29T08:49:50.201Z,19.73
2019-04-29T08:55:54.389Z,20.92
2019-04-29T09:01:58.664Z,21.70
2019-04-29T09:08:02.948Z,19.45
2019-04-29T09:14:07.234Z,20.15
2019-04-29T09:20:12.047Z,20.37
2019-04-29T09:26:39.758Z,23.42
2019-04-29T09:32:43.980Z,25.20
2019-04-29T09:38:48.239Z,25.02
2019-04-29T09:45:14.541Z,25.20
2019-04-29T09:51:18.231Z,30.40
2019-04-29T09:57:22.751Z,17.00
2019-04-29T10:03:54.827Z,26.52
2019-04-29T10:10:02.508Z,29.52
2019-04-29T10:16:31.637Z,27.82
2019-04-29T10:22:36.233Z,29.82
2019-04-29T10:28:51.959Z,30.72
2019-04-29T10:34:56.377Z,30.20
2019-04-29T10:41:09.392Z,32.95
2019-04-29T10:47:21.671Z,31.90
2019-04-29T10:53:28.802Z,33.70
2019-04-29T10:59:36.329Z,36.65
2019-04-29T11:06:00.033Z,32.25
2019-04-29T11:11:53.409Z,32.73
2019-04-29T11:17:59.853Z,33.18
2019-04-29T11:24:13.694Z,32.53
2019-04-29T11:30:21.787Z,33.50
2019-04-29T11:36:26.348Z,31.27
2019-04-29T11:42:36.430Z,27.15
2019-04-29T11:48:39.617Z,29.12
2019-04-29T11:54:43.891Z,27.65
2019-04-29T12:01:08.644Z,26.95
2019-04-29T12:07:13.170Z,25.05
2019-04-29T12:13:28.393Z,24.12
2019-04-29T12:19:32.939Z,22.80
2019-04-29T12:25:37.271Z,23.38
2019-04-29T12:31:58.678Z,27.90
2019-04-29T12:38:40.601Z,27.22
2019-04-29T12:44:52.046Z,26.73
2019-04-29T12:50:57.583Z,27.58
2019-04-29T12:57:02.098Z,26.97
2019-04-29T13:03:30.913Z,27.45
2019-04-29T13:09:38.708Z,28.45
2019-04-29T13:16:11.874Z,29.12
2019-04-29T13:22:17.174Z,27.90
2019-04-29T13:28:29.881Z,28.17
2019-04-29T13:34:33.457Z,27.70
2019-04-29T13:40:39.491Z,27.62
2019-04-29T13:47:00.218Z,27.52
2019-04-29T13:53:04.553Z,27.42
2019-04-29T13:59:12.430Z,28.62
2019-04-29T14:05:17.616Z,28.50
2019-04-29T14:11:25.433Z,27.52
2019-04-29T14:17:31.768Z,28.55
2019-04-29T14:23:33.856Z,28.17
2019-04-29T14:29:38.131Z,27.67
2019-04-29T14:35:50.945Z,29.15
2019-04-29T14:41:58.843Z,28.25
2019-04-29T14:48:24.055Z,27.25
2019-04-29T14:54:28.325Z,28.20
2019-04-29T15:00:49.955Z,26.30
2019-04-29T15:06:54.328Z,24.65
2019-04-29T15:13:11.469Z,26.17
2019-04-29T15:19:24.657Z,25.52
2019-04-29T15:25:29.015Z,23.70
2019-04-29T15:31:33.748Z,24.57
2019-04-29T15:37:37.957Z,23.07
2019-04-29T15:43:47.848Z,20.65
2019-04-29T15:49:48.260Z,18.87
2019-04-29T15:56:06.154Z,21.27
2019-04-29T16:01:59.079Z,19.73
2019-04-29T16:08:09.781Z,21.70
2019-04-29T16:14:20.421Z,24.30
2019-04-29T16:20:24.646Z,24.10
2019-04-29T16:26:30.333Z,22.82
2019-04-29T16:32:39.789Z,24.45
2019-04-29T16:38:46.263Z,21.85
2019-04-29T16:44:50.091Z,23.45
2019-04-29T16:50:54.354Z,22.27
2019-04-29T16:56:58.656Z,22.98
2019-04-29T17:03:02.947Z,22.58
2019-04-29T17:09:25.951Z,21.68
2019-04-29T17:15:30.411Z,19.57
2019-04-29T17:21:35.046Z,17.42
2019-04-29T17:27:52.657Z,16.87
2019-04-29T17:34:54.914Z,16.50
2019-04-29T17:40:29.562Z,15.20
2019-04-29T17:46:55.914Z,12.93
2019-04-29T17:53:00.261Z,10.93
2019-04-29T17:59:22.720Z,10.40
2019-04-29T18:05:54.488Z,9.88
2019-04-29T18:11:51.522Z,9.33
2019-04-29T18:17:53.430Z,10.23
2019-04-29T18:24:08.489Z,8.28
2019-04-29T18:30:16.333Z,8.78
2019-04-29T18:36:26.235Z,10.18
2019-04-29T18:42:28.153Z,8.23
2019-04-29T18:48:32.481Z,9.40
2019-04-29T18:54:36.678Z,9.85
2019-04-29T19:00:41.049Z,10.78
2019-04-29T19:06:45.322Z,9.60
2019-04-29T19:12:58.133Z,7.92
2019-04-29T19:19:00.160Z,5.92
2019-04-29T19:25:01.490Z,6.80
2019-04-29T19:31:09.341Z,10.00
2019-04-29T19:37:11.817Z,8.50
2019-04-29T19:43:18.882Z,7.67
2019-04-29T19:49:22.098Z,7.15
2019-04-29T19:55:27.809Z,8.68
2019-04-29T20:01:32.956Z,8.10
2019-04-29T20:07:42.246Z,6.80
2019-04-29T20:13:52.023Z,7.47
2019-04-29T20:20:12.345Z,7.40
2019-04-29T20:26:23.266Z,10.00
2019-04-29T20:32:27.894Z,10.08
2019-04-29T20:38:33.907Z,10.43
2019-04-29T20:44:36.569Z,12.35
2019-04-29T20:50:41.001Z,13.40
2019-04-29T20:56:47.310Z,15.55
2019-04-29T21:02:51.945Z,19.23
2019-04-29T21:08:56.250Z,19.20
2019-04-29T21:15:07.386Z,21.00
2019-04-29T21:21:08.864Z,20.05
2019-04-29T21:27:15.945Z,22.93
2019-04-29T21:33:21.461Z,23.52
2019-04-29T21:39:55.082Z,22.98
2019-04-29T21:46:08.288Z,21.40
2019-04-29T21:52:12.530Z,24.10
2019-04-29T21:58:16.836Z,21.07
2019-04-29T22:04:21.190Z,20.77
2019-04-29T22:10:28.997Z,23.47
2019-04-29T22:16:31.757Z,22.70
2019-04-29T22:22:36.606Z,21.45
2019-04-29T22:28:41.162Z,22.40
2019-04-29T22:34:49.438Z,24.90
2019-04-29T22:40:52.848Z,22.70
2019-04-29T22:46:57.241Z,23.98
2019-04-29T22:53:07.366Z,23.45
2019-04-29T22:59:07.477Z,23.15
2019-04-29T23:05:12.186Z,27.15
2019-04-29T23:11:16.476Z,24.60
2019-04-29T23:17:20.764Z,24.52
2019-04-29T23:23:33.524Z,26.10
2019-04-29T23:29:43.144Z,25.72
2019-04-29T23:35:44.679Z,23.25
2019-04-29T23:41:48.796Z,23.45
2019-04-29T23:47:53.024Z,22.17
2019-04-29T23:54:03.741Z,26.55
